createdAt,value
2024-04-19T00:00:55.296Z,8.17
2024-04-19T00:03:28.576Z,8.08
2024-04-19T00:05:55.599Z,8.07
2024-04-19T00:08:34.924Z,8.07
2024-04-19T00:11:02.171Z,8.11
2024-04-19T00:13:31.990Z,8.11
2024-04-19T00:16:01.776Z,8.19
2024-04-19T00:18:32.450Z,8.23
2024-04-19T00:21:00.379Z,8.21
2024-04-19T00:23:30.235Z,8.19
2024-04-19T00:25:58.257Z,8.26
2024-04-19T00:28:40.306Z,8.24
2024-04-19T00:31:09.928Z,8.15
2024-04-19T00:33:39.779Z,8.23
2024-04-19T00:36:06.999Z,8.26
2024-04-19T00:38:36.745Z,8.15
2024-04-19T00:41:03.917Z,8.10
2024-04-19T00:43:33.641Z,8.03
2024-04-19T00:46:01.034Z,8.05
2024-04-19T00:48:33.319Z,8.03
2024-04-19T00:51:03.211Z,8.15
2024-04-19T00:53:35.179Z,8.06
2024-04-19T00:56:22.384Z,7.98
2024-04-19T00:58:54.220Z,8.03
2024-04-19T01:01:25.305Z,7.97
2024-04-19T01:04:01.465Z,7.93
2024-04-19T01:06:29.358Z,7.84
2024-04-19T01:08:58.950Z,7.97
2024-04-19T01:11:32.216Z,8.01
2024-04-19T01:14:01.898Z,8.03
2024-04-19T01:16:29.237Z,8.07
2024-04-19T01:19:01.897Z,8.04
2024-04-19T01:21:29.970Z,7.85
2024-04-19T01:24:08.495Z,8.01
2024-04-19T01:26:41.281Z,8.08
2024-04-19T01:29:10.969Z,8.02
2024-04-19T01:31:38.203Z,7.93
2024-04-19T01:34:08.184Z,8.03
2024-04-19T01:36:36.440Z,8.07
2024-04-19T01:39:07.012Z,7.99
2024-04-19T01:41:34.165Z,7.99
2024-04-19T01:44:06.653Z,8.09
2024-04-19T01:46:34.097Z,8.10
2024-04-19T01:49:03.706Z,8.09
2024-04-19T01:51:33.410Z,8.15
2024-04-19T01:54:00.599Z,7.97
2024-04-19T01:56:30.409Z,7.89
2024-04-19T01:58:57.337Z,7.95
2024-04-19T02:01:31.921Z,7.77
2024-04-19T02:04:01.768Z,7.88
2024-04-19T02:06:29.059Z,7.66
2024-04-19T02:08:58.856Z,7.63
2024-04-19T02:11:28.198Z,7.47
2024-04-19T02:13:57.860Z,7.39
2024-04-19T02:16:28.091Z,7.60
2024-04-19T02:18:57.664Z,7.30
2024-04-19T02:21:28.894Z,7.22
2024-04-19T02:24:02.378Z,7.14
2024-04-19T02:26:30.141Z,7.04
2024-04-19T02:29:15.608Z,6.96
2024-04-19T02:31:47.942Z,6.93
2024-04-19T02:34:18.152Z,6.73
2024-04-19T02:36:47.997Z,6.74
2024-04-19T02:39:17.674Z,6.77
2024-04-19T02:41:47.316Z,6.62
2024-04-19T02:44:16.873Z,6.66
2024-04-19T02:46:51.683Z,6.70
2024-04-19T02:49:21.295Z,6.57
2024-04-19T02:51:50.920Z,6.51
2024-04-19T02:54:20.612Z,6.64
2024-04-19T02:56:50.437Z,6.59
2024-04-19T02:59:19.951Z,6.57
2024-04-19T03:01:52.493Z,6.56
2024-04-19T03:04:37.722Z,6.68
2024-04-19T03:07:07.762Z,6.54
2024-04-19T03:09:37.357Z,6.53
2024-04-19T03:12:08.102Z,6.49
2024-04-19T03:14:37.637Z,6.50
2024-04-19T03:17:12.595Z,6.48
2024-04-19T03:19:45.223Z,6.16
2024-04-19T03:22:15.073Z,6.26
2024-04-19T03:24:46.905Z,6.30
2024-04-19T03:27:18.069Z,6.28
2024-04-19T03:29:58.711Z,6.07
2024-04-19T03:32:31.102Z,6.15
2024-04-19T03:35:01.526Z,6.14
2024-04-19T03:37:31.144Z,6.08
2024-04-19T03:40:00.832Z,6.10
2024-04-19T03:42:30.533Z,6.04
2024-04-19T03:45:16.633Z,5.96
2024-04-19T03:47:49.225Z,5.81
2024-04-19T03:50:18.796Z,5.83
2024-04-19T03:52:48.649Z,5.81
2024-04-19T03:55:18.440Z,5.98
2024-04-19T03:57:48.681Z,5.74
2024-04-19T04:00:19.029Z,5.72
2024-04-19T04:02:53.881Z,5.77
2024-04-19T04:05:23.457Z,5.51
2024-04-19T04:07:53.628Z,5.60
2024-04-19T04:10:23.147Z,5.76
2024-04-19T04:12:56.288Z,5.89
2024-04-19T04:15:27.530Z,5.83
2024-04-19T04:18:02.195Z,5.70
2024-04-19T04:20:32.299Z,5.86
2024-04-19T04:23:03.196Z,5.97
2024-04-19T04:25:37.502Z,5.89
2024-04-19T04:28:07.576Z,5.66
2024-04-19T04:30:41.454Z,5.77
2024-04-19T04:33:15.178Z,5.83
2024-04-19T04:35:44.972Z,5.68
2024-04-19T04:38:15.044Z,5.65
2024-04-19T04:40:44.806Z,5.61
2024-04-19T04:43:17.720Z,5.82
2024-04-19T04:45:49.369Z,5.67
2024-04-19T04:48:23.017Z,5.69
2024-04-19T04:50:53.033Z,5.58
2024-04-19T04:53:22.581Z,5.86
2024-04-19T04:55:53.289Z,5.75
2024-04-19T04:58:22.853Z,5.65
2024-04-19T05:00:54.740Z,5.77
2024-04-19T05:03:26.973Z,5.88
2024-04-19T05:05:56.571Z,5.70
2024-04-19T05:08:26.114Z,5.71
2024-04-19T05:10:56.027Z,5.76
2024-04-19T05:13:28.034Z,5.87
2024-04-19T05:15:58.551Z,5.94
2024-04-19T05:18:32.674Z,5.88
2024-04-19T05:21:02.891Z,5.86
2024-04-19T05:23:32.462Z,5.89
2024-04-19T05:26:07.121Z,5.88
2024-04-19T05:28:36.708Z,5.93
2024-04-19T05:31:06.492Z,5.74
2024-04-19T05:33:38.685Z,5.92
2024-04-19T05:36:09.581Z,5.86
2024-04-19T05:38:39.694Z,5.89
2024-04-19T05:41:09.234Z,5.85
2024-04-19T05:43:39.528Z,5.85
2024-04-19T05:46:13.526Z,5.86
2024-04-19T05:48:47.853Z,5.84
2024-04-19T05:51:22.571Z,5.87
2024-04-19T05:53:52.927Z,6.02
2024-04-19T05:56:23.728Z,5.90
2024-04-19T05:58:53.240Z,5.57
2024-04-19T06:01:22.922Z,5.65
2024-04-19T06:03:56.079Z,5.84
2024-04-19T06:06:26.258Z,5.81
2024-04-19T06:08:56.120Z,5.94
2024-04-19T06:11:26.436Z,6.09
2024-04-19T06:13:57.366Z,6.03
2024-04-19T06:16:27.188Z,6.13
2024-04-19T06:19:00.806Z,6.22
2024-04-19T06:21:31.122Z,6.22
2024-04-19T06:24:00.759Z,6.20
2024-04-19T06:26:30.369Z,6.40
2024-04-19T06:29:00.075Z,6.29
2024-04-19T06:31:29.678Z,6.46
2024-04-19T06:34:01.940Z,6.53
2024-04-19T06:36:31.707Z,6.57
2024-04-19T06:39:04.222Z,6.59
2024-04-19T06:41:36.874Z,6.61
2024-04-19T06:44:07.825Z,6.44
2024-04-19T06:46:37.720Z,6.51
2024-04-19T06:49:09.925Z,6.65
2024-04-19T06:51:44.375Z,6.60
2024-04-19T06:54:14.878Z,6.58
2024-04-19T06:56:44.637Z,6.60
2024-04-19T06:59:15.290Z,6.54
2024-04-19T07:01:45.247Z,6.90
2024-04-19T07:04:17.583Z,6.71
2024-04-19T07:06:48.458Z,6.60
2024-04-19T07:09:17.131Z,6.48
2024-04-19T07:11:51.369Z,6.68
2024-04-19T07:14:25.454Z,6.47
2024-04-19T07:16:55.863Z,6.84
2024-04-19T07:19:28.353Z,6.81
2024-04-19T07:21:58.042Z,6.80
2024-04-19T07:24:27.780Z,6.87
2024-04-19T07:26:57.964Z,6.65
2024-04-19T07:29:27.517Z,6.76
2024-04-19T07:31:57.145Z,6.95
2024-04-19T07:34:29.535Z,6.96
2024-04-19T07:36:59.369Z,7.02
2024-04-19T07:39:29.221Z,7.19
2024-04-19T07:42:01.345Z,7.24
2024-04-19T07:44:30.952Z,7.05
2024-04-19T07:47:01.564Z,7.06
2024-04-19T07:49:33.962Z,7.02
2024-04-19T07:52:04.360Z,7.19
2024-04-19T07:54:37.272Z,7.02
2024-04-19T07:57:07.420Z,6.93
2024-04-19T07:59:37.060Z,7.07
2024-04-19T08:02:07.419Z,7.13
2024-04-19T08:04:44.200Z,7.07
2024-04-19T08:07:23.812Z,7.27
2024-04-19T08:09:58.225Z,7.58
2024-04-19T08:12:27.939Z,7.67
2024-04-19T08:14:57.562Z,7.90
2024-04-19T08:17:29.773Z,8.24
2024-04-19T08:20:02.089Z,7.97
2024-04-19T08:22:31.959Z,8.48
2024-04-19T08:25:01.822Z,8.97
2024-04-19T08:27:31.602Z,8.98
2024-04-19T08:30:01.238Z,9.25
2024-04-19T08:32:31.617Z,9.61
2024-04-19T08:35:05.077Z,10.24
2024-04-19T08:37:35.071Z,9.84
2024-04-19T08:40:06.457Z,10.09
2024-04-19T08:42:36.343Z,9.57
2024-04-19T08:45:07.884Z,9.41
2024-04-19T08:47:38.969Z,9.38
2024-04-19T08:50:11.951Z,9.35
2024-04-19T08:53:08.337Z,9.57
2024-04-19T08:55:36.155Z,10.05
2024-04-19T08:58:06.421Z,9.84
2024-04-19T09:00:36.388Z,9.85
2024-04-19T09:03:07.141Z,10.06
2024-04-19T09:05:39.581Z,10.48
2024-04-19T09:08:10.564Z,10.02
2024-04-19T09:10:40.140Z,10.63
2024-04-19T09:13:07.115Z,11.64
2024-04-19T09:15:37.960Z,12.00
2024-04-19T09:18:08.964Z,12.25
2024-04-19T09:20:46.009Z,11.65
2024-04-19T09:23:15.586Z,11.79
2024-04-19T09:25:45.154Z,10.68
2024-04-19T09:28:16.263Z,11.35
2024-04-19T09:30:46.513Z,11.84
2024-04-19T09:33:21.014Z,11.89
2024-04-19T09:35:57.111Z,11.75
2024-04-19T09:38:27.712Z,11.93
2024-04-19T09:40:57.372Z,13.03
2024-04-19T09:43:27.497Z,13.46
2024-04-19T09:45:59.228Z,14.03
2024-04-19T09:48:33.563Z,14.48
2024-04-19T09:51:08.926Z,13.69
2024-04-19T09:53:41.807Z,13.21
2024-04-19T09:56:18.221Z,11.68
2024-04-19T09:58:49.229Z,11.05
2024-04-19T10:01:19.644Z,10.81
2024-04-19T10:03:51.093Z,10.76
2024-04-19T10:06:26.957Z,10.57
2024-04-19T10:08:59.526Z,10.10
2024-04-19T10:11:29.350Z,10.12
2024-04-19T10:13:59.046Z,10.12
2024-04-19T10:16:28.544Z,9.94
2024-04-19T10:18:58.289Z,10.07
2024-04-19T10:21:31.597Z,10.02
2024-04-19T10:24:01.197Z,9.76
2024-04-19T10:26:32.230Z,9.82
2024-04-19T10:29:01.725Z,9.78
2024-04-19T10:31:33.194Z,9.65
2024-04-19T10:34:03.089Z,10.12
2024-04-19T10:36:36.115Z,11.03
2024-04-19T10:39:06.211Z,10.79
2024-04-19T10:41:35.729Z,10.87
2024-04-19T10:44:05.553Z,10.85
2024-04-19T10:46:37.136Z,12.27
2024-04-19T10:49:07.913Z,13.17
2024-04-19T10:51:40.657Z,13.23
2024-04-19T10:54:12.103Z,12.50
2024-04-19T10:56:41.675Z,11.54
2024-04-19T10:59:12.778Z,11.47
2024-04-19T11:01:44.009Z,11.00
2024-04-19T11:04:13.903Z,10.94
2024-04-19T11:06:46.311Z,10.49
2024-04-19T11:09:18.148Z,9.97
2024-04-19T11:11:47.974Z,10.16
2024-04-19T11:14:20.194Z,9.77
2024-04-19T11:16:49.922Z,9.54
2024-04-19T11:19:20.917Z,9.57
2024-04-19T11:21:55.277Z,9.66
2024-04-19T11:24:25.559Z,11.03
2024-04-19T11:26:56.056Z,11.09
2024-04-19T11:29:25.815Z,11.43
2024-04-19T11:31:55.672Z,12.01
2024-04-19T11:34:32.349Z,11.91
2024-04-19T11:37:06.534Z,12.95
2024-04-19T11:39:37.087Z,13.16
2024-04-19T11:42:07.793Z,12.16
2024-04-19T11:44:41.480Z,13.08
2024-04-19T11:47:11.741Z,11.77
2024-04-19T11:49:41.344Z,13.14
2024-04-19T11:52:14.072Z,14.36
2024-04-19T11:54:45.029Z,13.48
2024-04-19T11:57:15.547Z,13.72
2024-04-19T11:59:45.163Z,13.69
2024-04-19T12:02:14.765Z,14.62
2024-04-19T12:04:44.991Z,14.08
2024-04-19T12:07:18.982Z,13.75
2024-04-19T12:09:49.086Z,13.93
2024-04-19T12:13:08.744Z,12.87
2024-04-19T12:15:59.494Z,12.32
2024-04-19T12:18:03.763Z,12.02
2024-04-19T12:20:46.991Z,10.78
2024-04-19T12:23:28.719Z,9.61
2024-04-19T12:26:00.003Z,9.16
2024-04-19T12:28:48.295Z,8.16
2024-04-19T12:31:39.942Z,8.10
2024-04-19T12:37:06.838Z,8.33
2024-04-19T12:39:46.827Z,8.81
2024-04-19T12:42:19.793Z,8.99
2024-04-19T12:44:52.365Z,9.16
2024-04-19T12:47:26.197Z,9.26
2024-04-19T12:49:57.460Z,9.51
2024-04-19T12:52:31.930Z,9.50
2024-04-19T12:55:08.296Z,9.52
2024-04-19T12:57:40.369Z,9.35
2024-04-19T13:00:14.618Z,9.27
2024-04-19T13:02:44.557Z,9.39
2024-04-19T13:05:16.928Z,10.30
2024-04-19T13:07:49.847Z,10.30
2024-04-19T13:10:26.552Z,11.05
2024-04-19T13:13:02.799Z,10.56
2024-04-19T13:15:33.469Z,11.18
2024-04-19T13:18:03.849Z,10.75
2024-04-19T13:20:37.022Z,11.06
2024-04-19T13:23:07.186Z,10.83
2024-04-19T13:25:42.426Z,11.33
2024-04-19T13:28:15.074Z,10.92
2024-04-19T13:30:45.335Z,11.14
2024-04-19T13:33:18.218Z,11.36
2024-04-19T13:36:18.130Z,11.28
2024-04-19T13:38:48.821Z,11.62
2024-04-19T13:41:21.805Z,11.37
2024-04-19T13:43:52.929Z,10.99
2024-04-19T13:46:27.784Z,11.75
2024-04-19T13:49:02.650Z,11.58
2024-04-19T13:51:33.373Z,12.45
2024-04-19T13:54:03.839Z,12.09
2024-04-19T13:56:42.721Z,12.26
2024-04-19T13:59:15.934Z,12.44
2024-04-19T14:01:46.556Z,12.01
2024-04-19T14:07:33.074Z,12.62
2024-04-19T14:10:09.248Z,13.01
2024-04-19T14:12:42.986Z,13.12
2024-04-19T14:15:16.475Z,12.38
2024-04-19T14:17:48.284Z,12.75
2024-04-19T14:20:22.769Z,12.05
2024-04-19T14:22:52.687Z,12.26
2024-04-19T14:25:24.208Z,12.61
2024-04-19T14:27:57.734Z,11.92
2024-04-19T14:33:34.269Z,11.35
2024-04-19T14:38:49.923Z,11.34
2024-04-19T14:41:26.293Z,12.40
2024-04-19T14:43:58.807Z,11.35
2024-04-19T14:46:30.463Z,12.48
2024-04-19T14:49:03.921Z,11.84
2024-04-19T14:51:36.145Z,12.29
2024-04-19T14:54:08.881Z,13.85
2024-04-19T14:56:44.658Z,12.17
2024-04-19T14:59:26.496Z,12.67
2024-04-19T15:02:03.136Z,12.06
2024-04-19T15:04:34.283Z,12.00
2024-04-19T15:07:07.336Z,12.05
2024-04-19T15:09:37.776Z,12.06
2024-04-19T15:12:09.957Z,12.00
2024-04-19T15:14:43.961Z,11.82
2024-04-19T15:17:19.518Z,12.61
2024-04-19T15:19:50.908Z,12.57
2024-04-19T15:22:28.792Z,13.32
2024-04-19T15:25:02.958Z,13.34
2024-04-19T15:27:49.682Z,13.37
2024-04-19T15:30:41.736Z,14.28
2024-04-19T15:35:47.378Z,14.76
2024-04-19T15:38:18.191Z,14.67
2024-04-19T15:40:49.439Z,15.38
2024-04-19T15:43:25.452Z,13.99
2024-04-19T15:45:59.823Z,13.63
2024-04-19T15:48:30.877Z,13.80
2024-04-19T15:51:03.348Z,13.86
2024-04-19T15:56:30.353Z,11.67
2024-04-19T15:59:00.520Z,11.87
2024-04-19T16:01:40.537Z,11.18
2024-04-19T16:04:14.374Z,11.27
2024-04-19T16:06:46.821Z,10.51
2024-04-19T16:09:22.765Z,11.11
2024-04-19T16:11:52.702Z,11.75
2024-04-19T16:14:34.393Z,11.70
2024-04-19T16:17:15.384Z,12.70
2024-04-19T16:19:59.552Z,13.51
2024-04-19T16:22:32.524Z,13.41
2024-04-19T16:25:09.923Z,13.33
2024-04-19T16:27:40.368Z,13.61
2024-04-19T16:30:15.092Z,12.52
2024-04-19T16:32:57.750Z,11.28
2024-04-19T16:35:28.913Z,10.61
2024-04-19T16:38:00.884Z,10.44
2024-04-19T16:40:32.166Z,10.28
2024-04-19T16:43:14.331Z,10.49
2024-04-19T16:45:50.297Z,10.31
2024-04-19T16:48:24.401Z,10.49
2024-04-19T16:50:59.121Z,10.53
2024-04-19T16:53:32.998Z,10.32
2024-04-19T16:56:06.219Z,10.10
2024-04-19T16:58:38.290Z,10.23
2024-04-19T17:01:09.839Z,10.09
2024-04-19T17:06:56.908Z,9.90
2024-04-19T17:19:22.593Z,9.51
2024-04-19T17:25:36.303Z,9.29
2024-04-19T17:28:17.570Z,8.91
2024-04-19T17:30:53.127Z,8.84
2024-04-19T17:33:26.872Z,8.90
2024-04-19T17:36:05.842Z,8.93
2024-04-19T17:38:55.408Z,8.83
2024-04-19T17:53:19.296Z,8.03
2024-04-19T18:06:00.221Z,7.79
2024-04-19T18:14:18.633Z,7.09
2024-04-19T18:16:50.264Z,6.98
2024-04-19T18:19:25.798Z,7.07
2024-04-19T18:21:57.858Z,7.07
2024-04-19T18:24:31.747Z,7.12
2024-04-19T18:27:02.102Z,7.02
2024-04-19T18:29:40.745Z,7.05
2024-04-19T18:32:11.698Z,6.95
2024-04-19T18:35:38.572Z,7.03
2024-04-19T18:38:10.233Z,6.87
2024-04-19T18:43:29.329Z,6.82
2024-04-19T18:46:03.370Z,6.94
2024-04-19T18:48:42.326Z,6.98
2024-04-19T18:51:23.932Z,6.88
2024-04-19T18:53:59.434Z,6.91
2024-04-19T18:56:38.978Z,7.09
2024-04-19T18:59:10.937Z,6.87
2024-04-19T19:01:47.589Z,6.81
2024-04-19T19:04:17.993Z,6.95
2024-04-19T19:07:01.483Z,6.76
2024-04-19T19:09:37.366Z,6.84
2024-04-19T19:12:11.792Z,6.57
2024-04-19T19:14:45.257Z,6.64
2024-04-19T19:17:16.005Z,6.61
2024-04-19T19:20:07.082Z,6.54
2024-04-19T19:22:42.404Z,6.61
2024-04-19T19:25:26.691Z,6.71
2024-04-19T19:27:57.156Z,6.61
2024-04-19T19:30:27.891Z,6.72
2024-04-19T19:39:01.384Z,6.75
2024-04-19T19:41:33.665Z,6.86
2024-04-19T19:44:03.914Z,6.84
2024-04-19T19:46:38.448Z,6.75
2024-04-19T19:55:45.097Z,6.79
2024-04-19T19:58:19.022Z,6.81
2024-04-19T20:07:24.293Z,6.95
2024-04-19T20:10:12.819Z,6.90
2024-04-19T20:13:08.411Z,6.96
2024-04-19T20:15:43.149Z,7.03
2024-04-19T20:18:19.038Z,7.02
2024-04-19T20:20:53.970Z,7.03
2024-04-19T20:23:25.619Z,7.04
2024-04-19T20:25:57.430Z,7.02
2024-04-19T20:28:30.219Z,7.05
2024-04-19T20:31:00.567Z,7.04
2024-04-19T20:33:34.026Z,6.93
2024-04-19T20:36:07.413Z,7.13
2024-04-19T20:38:42.595Z,6.96
2024-04-19T20:44:20.401Z,6.99
2024-04-19T20:46:50.103Z,6.76
2024-04-19T20:49:20.294Z,6.91
2024-04-19T20:51:52.497Z,6.98
2024-04-19T20:54:23.472Z,6.88
2024-04-19T20:56:53.219Z,6.86
2024-04-19T20:59:30.401Z,6.78
2024-04-19T21:02:14.592Z,7.04
2024-04-19T21:04:44.185Z,6.89
2024-04-19T21:07:14.199Z,6.92
2024-04-19T21:09:45.424Z,6.78
2024-04-19T21:12:18.983Z,6.93
2024-04-19T21:14:53.535Z,6.99
2024-04-19T21:17:30.026Z,7.02
2024-04-19T21:20:00.600Z,6.88
2024-04-19T21:22:32.292Z,6.70
2024-04-19T21:25:03.527Z,6.75
2024-04-19T21:27:35.337Z,6.74
2024-04-19T21:30:17.246Z,6.87
2024-04-19T21:32:48.224Z,6.71
2024-04-19T21:35:20.950Z,6.65
2024-04-19T21:37:48.142Z,6.78
2024-04-19T21:40:18.916Z,6.73
2024-04-19T21:42:52.741Z,6.76
2024-04-19T21:45:26.299Z,6.73
2024-04-19T21:47:56.306Z,6.86
2024-04-19T21:50:26.265Z,6.70
2024-04-19T21:52:55.847Z,6.69
2024-04-19T21:58:12.700Z,6.64
2024-04-19T22:00:48.313Z,6.62
2024-04-19T22:03:18.069Z,6.76
2024-04-19T22:05:48.356Z,6.53
2024-04-19T22:08:19.122Z,6.57
2024-04-19T22:10:49.926Z,6.57
2024-04-19T22:13:21.964Z,6.75
2024-04-19T22:15:54.930Z,6.59
2024-04-19T22:18:24.559Z,6.66
2024-04-19T22:21:07.311Z,6.45
2024-04-19T22:23:38.299Z,6.39
2024-04-19T22:26:11.510Z,6.48
2024-04-19T22:32:04.176Z,6.39
2024-04-19T22:34:39.747Z,6.36
2024-04-19T22:53:05.578Z,6.30
2024-04-19T22:56:08.744Z,6.27
2024-04-19T23:01:40.009Z,6.40
2024-04-19T23:07:19.823Z,6.04
2024-04-19T23:10:04.054Z,6.25
2024-04-19T23:12:34.634Z,6.25
2024-04-19T23:15:08.766Z,6.33
2024-04-19T23:17:43.434Z,6.21
2024-04-19T23:20:14.371Z,6.38
2024-04-19T23:22:45.186Z,6.35
2024-04-19T23:25:16.005Z,6.25
2024-04-19T23:27:49.480Z,6.30
2024-04-19T23:31:34.664Z,6.31
2024-04-19T23:34:08.164Z,6.20
2024-04-19T23:36:40.325Z,5.97
2024-04-19T23:39:11.845Z,6.19
2024-04-19T23:41:42.527Z,6.17
2024-04-19T23:44:14.684Z,6.29
2024-04-19T23:46:45.041Z,6.01
2024-04-19T23:49:19.880Z,6.16
2024-04-19T23:51:52.043Z,5.92
2024-04-19T23:54:22.428Z,6.05
2024-04-19T23:56:54.037Z,6.06
2024-04-19T23:59:24.816Z,5.94
